Domov               UVHVVR             MKGP            O straneh              
ZDRAVSTVENO VARSTVO RASTLIN
  MREŽA AGROMET. POSTAJ
 ► PROGNOSTIČNA OBVESTILA
AGROMETEOROLOŠKI PODATKI -
ARSO
OBVLADOVANJE TVEGANJ ZARADI
NEUGODNIH VREMENSKIH RAZMER
  ► NARAVNE NESREČE
  ► SUŠA/MOČA
  ► NAMAKANJE
  ► ŽLED (gozdarstvo)
KARTOGRAFSKI PRIKAZI
SPLETNE POVEZAVE
PROJEKTI IN PUBLIKACIJE

AGROMETEOROLOŠKA MREŽA: VREMENSKE POSTAJE IN FENOLOŠKA OPAZOVANJA

Pregled podatkov za lokacijo Labor, meteorološka postaja 42414

Pregled senzorjev na lokaciji

ID Ime Zadnja
vrednost
Datum
zadnje
spremembe
Tip
senzorja
2102 Padavine (mm) 0 mm 16.7.2018 00:30 Rain-O-Matic
2100 Relativna vlaga 2 m (% RH) 58,46 % RH 16.7.2018 00:30 50YA
2099 Temperatura 2 m (°C) 21,91 °C 16.7.2018 00:30 50YA

Pregled podatkov zadnjih 24 ur

Zap.
št.
Datum in čas Labor
Padavine Relativna
vlaga
2
m
Temperatura
2
m
1 16.7.2018 00:30
2 16.7.2018 00:00
3 15.7.2018 23:30 0 58,5 21,9
4 15.7.2018 23:00 0 60,1 21,9
5 15.7.2018 22:30 0 59,4 21,9
6 15.7.2018 22:00 0 61,1 21,6
7 15.7.2018 21:30 0 59,4 22
8 15.7.2018 21:00 0 59,7 22
9 15.7.2018 20:30 0 57,1 22,5
10 15.7.2018 20:00 0 60,3 22,2
11 15.7.2018 19:30 0 58,6 22,7
12 15.7.2018 19:00 0 59,1 23,9
13 15.7.2018 18:30 0 55 24,7
14 15.7.2018 18:00 0 53,8 25,3
15 15.7.2018 17:30 0 52,9 26,7
16 15.7.2018 17:00 0 56,2 26,2
17 15.7.2018 16:30 0 54,3 27,2
18 15.7.2018 16:00 0 47,3 29
19 15.7.2018 15:30 0 48,6 28,4
20 15.7.2018 15:00 0 48,9 28
21 15.7.2018 14:30 0 47,6 28,3
22 15.7.2018 14:00 0 42,2 29,3
23 15.7.2018 13:30 0 43,8 28,6
24 15.7.2018 13:00 0 48,5 28
25 15.7.2018 12:30 0 48,8 28
26 15.7.2018 12:00 0 52,2 27,2
27 15.7.2018 11:30 0 55,3 27,3
28 15.7.2018 11:00 0 49,6 27,7
29 15.7.2018 10:30 0 51,5 27
30 15.7.2018 10:00 0 51,8 25,7
31 15.7.2018 09:30 0 60,1 23,6
32 15.7.2018 09:00 0 66 22,3
33 15.7.2018 08:30 0 73,5 20,8
34 15.7.2018 08:00 0 83,5 19,4
35 15.7.2018 07:30 0,4 83,6 20
36 15.7.2018 07:00 0 82,6 20,4
37 15.7.2018 06:30 0 69,4 21,3
38 15.7.2018 06:00 0 79,9 20,3
39 15.7.2018 05:30 0 86,2 20,4
40 15.7.2018 05:00 0,2 84 20,3
41 15.7.2018 04:30 0 68,9 21
42 15.7.2018 04:00 0 58,5 21,8
43 15.7.2018 03:30 0 57,3 22,1
44 15.7.2018 03:00 0 59,4 22
45 15.7.2018 02:30 0 60,4 21,7
46 15.7.2018 02:00 0 71,3 21,2
47 15.7.2018 01:30 0 76,5 21,3
48 15.7.2018 01:00 0 78,7 21,2
© 2011 Ministrstvo za kmetijstvo, gozdarstvo in prehrano. Vse pravice pridržane.